sensor_id;sensor_type;location;lat;lon;timestamp;P1;durP1;ratioP1;P2;durP2;ratioP2
42332;SDS011;27984;51.476;5.702;2023-08-21T00:02:03;9.82;;;2.00;;
42332;SDS011;27984;51.476;5.702;2023-08-21T00:04:29;8.27;;;1.80;;
42332;SDS011;27984;51.476;5.702;2023-08-21T00:06:55;6.72;;;2.10;;
42332;SDS011;27984;51.476;5.702;2023-08-21T00:09:21;9.77;;;2.03;;
42332;SDS011;27984;51.476;5.702;2023-08-21T00:11:47;6.45;;;2.10;;
42332;SDS011;27984;51.476;5.702;2023-08-21T00:14:13;9.73;;;2.50;;
42332;SDS011;27984;51.476;5.702;2023-08-21T00:16:39;7.93;;;2.28;;
42332;SDS011;27984;51.476;5.702;2023-08-21T00:19:05;9.32;;;2.22;;
42332;SDS011;27984;51.476;5.702;2023-08-21T00:21:31;7.05;;;2.33;;
42332;SDS011;27984;51.476;5.702;2023-08-21T00:23:57;6.75;;;2.00;;
42332;SDS011;27984;51.476;5.702;2023-08-21T00:26:23;6.72;;;2.25;;
42332;SDS011;27984;51.476;5.702;2023-08-21T00:28:49;6.45;;;2.10;;
42332;SDS011;27984;51.476;5.702;2023-08-21T00:31:15;7.07;;;1.90;;
42332;SDS011;27984;51.476;5.702;2023-08-21T00:33:41;9.80;;;2.38;;
42332;SDS011;27984;51.476;5.702;2023-08-21T00:36:07;6.20;;;1.75;;
42332;SDS011;27984;51.476;5.702;2023-08-21T00:38:33;11.75;;;2.70;;
42332;SDS011;27984;51.476;5.702;2023-08-21T00:40:59;7.43;;;1.90;;
42332;SDS011;27984;51.476;5.702;2023-08-21T00:43:25;7.88;;;1.95;;
42332;SDS011;27984;51.476;5.702;2023-08-21T00:45:51;7.50;;;2.22;;
42332;SDS011;27984;51.476;5.702;2023-08-21T00:48:17;7.80;;;2.35;;
42332;SDS011;27984;51.476;5.702;2023-08-21T00:50:43;7.82;;;2.20;;
42332;SDS011;27984;51.476;5.702;2023-08-21T00:53:10;5.47;;;2.10;;
42332;SDS011;27984;51.476;5.702;2023-08-21T00:55:36;7.32;;;2.00;;
42332;SDS011;27984;51.476;5.702;2023-08-21T00:58:02;7.40;;;2.30;;
42332;SDS011;27984;51.476;5.702;2023-08-21T01:00:29;6.40;;;2.05;;
42332;SDS011;27984;51.476;5.702;2023-08-21T01:02:55;9.05;;;2.40;;
42332;SDS011;27984;51.476;5.702;2023-08-21T01:05:22;7.50;;;2.20;;
42332;SDS011;27984;51.476;5.702;2023-08-21T01:07:53;8.77;;;2.20;;
42332;SDS011;27984;51.476;5.702;2023-08-21T01:10:26;10.23;;;2.03;;
42332;SDS011;27984;51.476;5.702;2023-08-21T01:13:00;7.28;;;2.42;;
42332;SDS011;27984;51.476;5.702;2023-08-21T01:15:27;10.38;;;2.67;;
42332;SDS011;27984;51.476;5.702;2023-08-21T01:17:54;6.40;;;1.90;;
42332;SDS011;27984;51.476;5.702;2023-08-21T01:20:20;8.45;;;2.28;;
42332;SDS011;27984;51.476;5.702;2023-08-21T01:22:46;8.57;;;2.53;;
42332;SDS011;27984;51.476;5.702;2023-08-21T01:25:13;6.35;;;2.35;;
42332;SDS011;27984;51.476;5.702;2023-08-21T01:27:42;8.73;;;2.55;;
42332;SDS011;27984;51.476;5.702;2023-08-21T01:30:08;8.75;;;2.67;;
42332;SDS011;27984;51.476;5.702;2023-08-21T01:35:12;9.88;;;2.38;;
42332;SDS011;27984;51.476;5.702;2023-08-21T01:37:38;9.13;;;2.58;;
42332;SDS011;27984;51.476;5.702;2023-08-21T01:40:05;7.78;;;2.15;;
42332;SDS011;27984;51.476;5.702;2023-08-21T01:42:31;6.05;;;2.40;;
42332;SDS011;27984;51.476;5.702;2023-08-21T01:44:57;10.02;;;2.83;;
42332;SDS011;27984;51.476;5.702;2023-08-21T01:47:23;7.32;;;2.20;;
42332;SDS011;27984;51.476;5.702;2023-08-21T01:49:49;6.60;;;2.03;;
42332;SDS011;27984;51.476;5.702;2023-08-21T01:52:17;8.82;;;2.45;;
42332;SDS011;27984;51.476;5.702;2023-08-21T01:54:43;7.72;;;2.40;;
42332;SDS011;27984;51.476;5.702;2023-08-21T01:57:09;7.00;;;2.47;;
42332;SDS011;27984;51.476;5.702;2023-08-21T01:59:35;5.68;;;2.22;;
42332;SDS011;27984;51.476;5.702;2023-08-21T02:02:01;6.30;;;2.10;;
42332;SDS011;27984;51.476;5.702;2023-08-21T02:04:27;9.77;;;2.42;;
42332;SDS011;27984;51.476;5.702;2023-08-21T02:06:53;7.40;;;2.30;;
42332;SDS011;27984;51.476;5.702;2023-08-21T02:09:19;9.20;;;2.65;;
42332;SDS011;27984;51.476;5.702;2023-08-21T02:11:45;10.70;;;2.67;;
42332;SDS011;27984;51.476;5.702;2023-08-21T02:14:11;9.32;;;2.63;;
42332;SDS011;27984;51.476;5.702;2023-08-21T02:16:37;9.43;;;2.70;;
42332;SDS011;27984;51.476;5.702;2023-08-21T02:19:03;6.75;;;2.70;;
42332;SDS011;27984;51.476;5.702;2023-08-21T02:21:29;5.93;;;2.60;;
42332;SDS011;27984;51.476;5.702;2023-08-21T02:23:54;8.38;;;3.20;;
42332;SDS011;27984;51.476;5.702;2023-08-21T02:26:20;6.93;;;2.75;;
42332;SDS011;27984;51.476;5.702;2023-08-21T02:28:46;9.95;;;2.70;;
42332;SDS011;27984;51.476;5.702;2023-08-21T02:31:12;8.93;;;3.10;;
42332;SDS011;27984;51.476;5.702;2023-08-21T02:33:38;8.40;;;2.95;;
42332;SDS011;27984;51.476;5.702;2023-08-21T02:36:04;9.43;;;2.70;;
42332;SDS011;27984;51.476;5.702;2023-08-21T02:38:32;6.95;;;2.40;;
42332;SDS011;27984;51.476;5.702;2023-08-21T02:40:58;8.00;;;2.40;;
42332;SDS011;27984;51.476;5.702;2023-08-21T02:43:24;9.55;;;2.40;;
42332;SDS011;27984;51.476;5.702;2023-08-21T02:45:50;11.82;;;2.53;;
42332;SDS011;27984;51.476;5.702;2023-08-21T02:48:15;7.28;;;2.33;;
42332;SDS011;27984;51.476;5.702;2023-08-21T02:50:42;8.18;;;2.50;;
42332;SDS011;27984;51.476;5.702;2023-08-21T02:53:08;9.00;;;2.83;;
42332;SDS011;27984;51.476;5.702;2023-08-21T02:55:34;9.10;;;2.50;;
42332;SDS011;27984;51.476;5.702;2023-08-21T02:58:00;8.63;;;2.30;;
42332;SDS011;27984;51.476;5.702;2023-08-21T03:00:26;7.75;;;2.67;;
42332;SDS011;27984;51.476;5.702;2023-08-21T03:02:52;8.07;;;2.22;;
42332;SDS011;27984;51.476;5.702;2023-08-21T03:05:18;7.93;;;2.40;;
42332;SDS011;27984;51.476;5.702;2023-08-21T03:07:44;8.77;;;2.55;;
42332;SDS011;27984;51.476;5.702;2023-08-21T03:10:10;5.43;;;2.28;;
42332;SDS011;27984;51.476;5.702;2023-08-21T03:12:35;7.93;;;2.17;;
42332;SDS011;27984;51.476;5.702;2023-08-21T03:15:02;8.65;;;2.50;;
42332;SDS011;27984;51.476;5.702;2023-08-21T03:17:28;9.90;;;3.10;;
42332;SDS011;27984;51.476;5.702;2023-08-21T03:19:54;8.50;;;2.50;;
42332;SDS011;27984;51.476;5.702;2023-08-21T03:22:20;9.65;;;2.97;;
42332;SDS011;27984;51.476;5.702;2023-08-21T03:24:45;8.52;;;2.60;;
42332;SDS011;27984;51.476;5.702;2023-08-21T03:27:11;5.72;;;2.30;;
42332;SDS011;27984;51.476;5.702;2023-08-21T03:29:37;7.05;;;2.58;;
42332;SDS011;27984;51.476;5.702;2023-08-21T03:32:04;7.72;;;2.50;;
42332;SDS011;27984;51.476;5.702;2023-08-21T03:34:30;9.13;;;2.78;;
42332;SDS011;27984;51.476;5.702;2023-08-21T03:36:56;8.27;;;2.53;;
42332;SDS011;27984;51.476;5.702;2023-08-21T03:39:22;7.10;;;2.50;;
42332;SDS011;27984;51.476;5.702;2023-08-21T03:41:48;7.95;;;2.92;;
42332;SDS011;27984;51.476;5.702;2023-08-21T03:44:14;6.30;;;2.50;;
42332;SDS011;27984;51.476;5.702;2023-08-21T03:46:40;7.70;;;2.65;;
42332;SDS011;27984;51.476;5.702;2023-08-21T03:49:06;9.10;;;2.55;;
42332;SDS011;27984;51.476;5.702;2023-08-21T03:51:32;9.82;;;2.83;;
42332;SDS011;27984;51.476;5.702;2023-08-21T03:53:58;9.20;;;2.80;;
42332;SDS011;27984;51.476;5.702;2023-08-21T03:56:24;8.52;;;2.55;;
42332;SDS011;27984;51.476;5.702;2023-08-21T03:58:50;10.40;;;3.30;;
42332;SDS011;27984;51.476;5.702;2023-08-21T04:01:16;10.40;;;2.78;;
42332;SDS011;27984;51.476;5.702;2023-08-21T04:03:42;8.25;;;2.78;;
42332;SDS011;27984;51.476;5.702;2023-08-21T04:06:08;7.30;;;2.80;;
42332;SDS011;27984;51.476;5.702;2023-08-21T04:08:34;5.65;;;2.38;;
42332;SDS011;27984;51.476;5.702;2023-08-21T04:11:01;7.10;;;2.60;;
42332;SDS011;27984;51.476;5.702;2023-08-21T04:13:27;6.85;;;2.72;;
42332;SDS011;27984;51.476;5.702;2023-08-21T04:15:53;7.57;;;2.80;;
42332;SDS011;27984;51.476;5.702;2023-08-21T04:18:20;10.02;;;2.97;;
42332;SDS011;27984;51.476;5.702;2023-08-21T04:20:49;12.45;;;2.97;;
42332;SDS011;27984;51.476;5.702;2023-08-21T04:23:16;7.50;;;2.58;;
42332;SDS011;27984;51.476;5.702;2023-08-21T04:25:42;10.20;;;2.83;;
42332;SDS011;27984;51.476;5.702;2023-08-21T04:28:10;7.75;;;2.70;;
42332;SDS011;27984;51.476;5.702;2023-08-21T04:30:36;6.93;;;2.78;;
42332;SDS011;27984;51.476;5.702;2023-08-21T04:33:02;7.25;;;2.70;;
42332;SDS011;27984;51.476;5.702;2023-08-21T04:35:28;11.27;;;2.88;;
42332;SDS011;27984;51.476;5.702;2023-08-21T04:37:54;7.57;;;2.45;;
42332;SDS011;27984;51.476;5.702;2023-08-21T04:40:20;8.23;;;2.53;;
42332;SDS011;27984;51.476;5.702;2023-08-21T04:42:47;7.93;;;2.85;;
42332;SDS011;27984;51.476;5.702;2023-08-21T04:45:13;9.13;;;3.42;;
42332;SDS011;27984;51.476;5.702;2023-08-21T04:47:39;9.85;;;3.20;;
42332;SDS011;27984;51.476;5.702;2023-08-21T04:50:05;8.75;;;3.70;;
42332;SDS011;27984;51.476;5.702;2023-08-21T04:52:31;13.85;;;4.68;;
42332;SDS011;27984;51.476;5.702;2023-08-21T04:54:57;9.40;;;4.40;;
42332;SDS011;27984;51.476;5.702;2023-08-21T04:57:22;9.55;;;3.97;;
42332;SDS011;27984;51.476;5.702;2023-08-21T04:59:48;7.93;;;4.38;;
42332;SDS011;27984;51.476;5.702;2023-08-21T05:02:14;11.93;;;4.65;;
42332;SDS011;27984;51.476;5.702;2023-08-21T05:04:40;12.70;;;5.03;;
42332;SDS011;27984;51.476;5.702;2023-08-21T05:07:06;9.68;;;5.05;;
42332;SDS011;27984;51.476;5.702;2023-08-21T05:09:32;12.40;;;4.70;;
42332;SDS011;27984;51.476;5.702;2023-08-21T05:11:58;13.20;;;4.97;;
42332;SDS011;27984;51.476;5.702;2023-08-21T05:14:24;11.00;;;5.10;;
42332;SDS011;27984;51.476;5.702;2023-08-21T05:16:50;12.38;;;5.43;;
42332;SDS011;27984;51.476;5.702;2023-08-21T05:19:16;12.43;;;5.30;;
42332;SDS011;27984;51.476;5.702;2023-08-21T05:21:43;12.57;;;6.00;;
42332;SDS011;27984;51.476;5.702;2023-08-21T05:24:09;11.70;;;5.28;;
42332;SDS011;27984;51.476;5.702;2023-08-21T05:26:35;14.50;;;5.45;;
42332;SDS011;27984;51.476;5.702;2023-08-21T05:29:01;9.20;;;5.45;;
42332;SDS011;27984;51.476;5.702;2023-08-21T05:31:27;14.00;;;5.72;;
42332;SDS011;27984;51.476;5.702;2023-08-21T05:33:53;12.77;;;5.90;;
42332;SDS011;27984;51.476;5.702;2023-08-21T05:36:19;13.30;;;6.13;;
42332;SDS011;27984;51.476;5.702;2023-08-21T05:38:45;11.13;;;5.82;;
42332;SDS011;27984;51.476;5.702;2023-08-21T05:41:13;11.13;;;5.35;;
42332;SDS011;27984;51.476;5.702;2023-08-21T05:43:38;12.50;;;5.63;;
42332;SDS011;27984;51.476;5.702;2023-08-21T05:46:07;15.18;;;5.90;;
42332;SDS011;27984;51.476;5.702;2023-08-21T05:48:33;12.85;;;5.45;;
42332;SDS011;27984;51.476;5.702;2023-08-21T05:50:59;11.95;;;5.68;;
42332;SDS011;27984;51.476;5.702;2023-08-21T05:53:25;12.32;;;6.10;;
42332;SDS011;27984;51.476;5.702;2023-08-21T05:55:52;8.98;;;5.88;;
42332;SDS011;27984;51.476;5.702;2023-08-21T05:58:18;16.52;;;6.50;;
42332;SDS011;27984;51.476;5.702;2023-08-21T06:00:44;14.07;;;6.25;;
42332;SDS011;27984;51.476;5.702;2023-08-21T06:03:10;15.88;;;6.72;;
42332;SDS011;27984;51.476;5.702;2023-08-21T06:05:36;11.55;;;6.35;;
42332;SDS011;27984;51.476;5.702;2023-08-21T06:08:02;14.45;;;6.57;;
42332;SDS011;27984;51.476;5.702;2023-08-21T06:10:28;10.93;;;5.93;;
42332;SDS011;27984;51.476;5.702;2023-08-21T06:12:54;12.85;;;6.45;;
42332;SDS011;27984;51.476;5.702;2023-08-21T06:15:20;10.35;;;5.88;;
42332;SDS011;27984;51.476;5.702;2023-08-21T06:17:46;10.95;;;6.22;;
42332;SDS011;27984;51.476;5.702;2023-08-21T06:20:12;9.48;;;4.97;;
42332;SDS011;27984;51.476;5.702;2023-08-21T06:22:39;13.13;;;4.93;;
42332;SDS011;27984;51.476;5.702;2023-08-21T06:25:05;10.02;;;4.30;;
42332;SDS011;27984;51.476;5.702;2023-08-21T06:27:31;16.67;;;5.68;;
42332;SDS011;27984;51.476;5.702;2023-08-21T06:29:57;11.77;;;4.20;;
42332;SDS011;27984;51.476;5.702;2023-08-21T06:32:23;10.45;;;4.55;;
42332;SDS011;27984;51.476;5.702;2023-08-21T06:34:49;8.95;;;4.40;;
42332;SDS011;27984;51.476;5.702;2023-08-21T06:37:15;6.82;;;3.65;;
42332;SDS011;27984;51.476;5.702;2023-08-21T06:39:41;10.75;;;3.83;;
42332;SDS011;27984;51.476;5.702;2023-08-21T06:42:07;9.38;;;3.83;;
42332;SDS011;27984;51.476;5.702;2023-08-21T06:44:33;11.68;;;4.00;;
42332;SDS011;27984;51.476;5.702;2023-08-21T06:46:59;12.88;;;4.70;;
42332;SDS011;27984;51.476;5.702;2023-08-21T06:49:25;11.80;;;4.10;;
42332;SDS011;27984;51.476;5.702;2023-08-21T06:51:51;9.32;;;4.00;;
42332;SDS011;27984;51.476;5.702;2023-08-21T06:54:17;8.48;;;3.58;;
42332;SDS011;27984;51.476;5.702;2023-08-21T06:56:43;7.47;;;3.28;;
42332;SDS011;27984;51.476;5.702;2023-08-21T06:59:09;9.95;;;3.58;;
42332;SDS011;27984;51.476;5.702;2023-08-21T07:01:36;7.65;;;3.58;;
42332;SDS011;27984;51.476;5.702;2023-08-21T07:04:01;8.25;;;3.53;;
42332;SDS011;27984;51.476;5.702;2023-08-21T07:06:28;8.07;;;3.45;;
42332;SDS011;27984;51.476;5.702;2023-08-21T07:08:54;6.88;;;3.17;;
42332;SDS011;27984;51.476;5.702;2023-08-21T07:11:20;10.40;;;3.47;;
42332;SDS011;27984;51.476;5.702;2023-08-21T07:13:46;7.13;;;3.50;;
42332;SDS011;27984;51.476;5.702;2023-08-21T07:16:12;8.43;;;3.92;;
42332;SDS011;27984;51.476;5.702;2023-08-21T07:18:38;11.95;;;3.53;;
42332;SDS011;27984;51.476;5.702;2023-08-21T07:21:04;7.45;;;3.60;;
42332;SDS011;27984;51.476;5.702;2023-08-21T07:23:31;8.88;;;3.65;;
42332;SDS011;27984;51.476;5.702;2023-08-21T07:25:58;9.23;;;3.72;;
42332;SDS011;27984;51.476;5.702;2023-08-21T07:28:24;10.68;;;3.63;;
42332;SDS011;27984;51.476;5.702;2023-08-21T07:30:57;11.40;;;3.60;;
42332;SDS011;27984;51.476;5.702;2023-08-21T07:33:23;11.68;;;3.10;;
42332;SDS011;27984;51.476;5.702;2023-08-21T07:36:05;7.97;;;2.67;;
42332;SDS011;27984;51.476;5.702;2023-08-21T07:38:31;7.05;;;3.08;;
42332;SDS011;27984;51.476;5.702;2023-08-21T07:41:01;5.18;;;2.38;;
42332;SDS011;27984;51.476;5.702;2023-08-21T07:43:28;6.20;;;2.53;;
42332;SDS011;27984;51.476;5.702;2023-08-21T07:45:54;5.38;;;2.40;;
42332;SDS011;27984;51.476;5.702;2023-08-21T07:48:20;6.15;;;1.70;;
42332;SDS011;27984;51.476;5.702;2023-08-21T07:50:52;8.43;;;2.55;;
42332;SDS011;27984;51.476;5.702;2023-08-21T07:53:19;7.38;;;1.40;;
42332;SDS011;27984;51.476;5.702;2023-08-21T07:55:45;6.95;;;1.45;;
42332;SDS011;27984;51.476;5.702;2023-08-21T07:58:11;6.47;;;1.77;;
42332;SDS011;27984;51.476;5.702;2023-08-21T08:00:37;4.25;;;1.35;;
42332;SDS011;27984;51.476;5.702;2023-08-21T08:03:04;5.03;;;1.50;;
42332;SDS011;27984;51.476;5.702;2023-08-21T08:05:30;4.40;;;1.17;;
42332;SDS011;27984;51.476;5.702;2023-08-21T08:07:56;7.63;;;1.38;;
42332;SDS011;27984;51.476;5.702;2023-08-21T08:10:23;6.88;;;1.30;;
42332;SDS011;27984;51.476;5.702;2023-08-21T08:12:49;3.90;;;1.40;;
42332;SDS011;27984;51.476;5.702;2023-08-21T08:15:15;5.75;;;1.25;;
42332;SDS011;27984;51.476;5.702;2023-08-21T08:17:41;7.72;;;1.70;;
42332;SDS011;27984;51.476;5.702;2023-08-21T08:20:08;6.95;;;1.38;;
42332;SDS011;27984;51.476;5.702;2023-08-21T08:22:34;6.53;;;1.50;;
42332;SDS011;27984;51.476;5.702;2023-08-21T08:25:00;6.28;;;1.30;;
42332;SDS011;27984;51.476;5.702;2023-08-21T08:27:25;7.93;;;1.30;;
42332;SDS011;27984;51.476;5.702;2023-08-21T08:29:51;5.07;;;1.40;;
42332;SDS011;27984;51.476;5.702;2023-08-21T08:32:17;6.40;;;1.40;;
42332;SDS011;27984;51.476;5.702;2023-08-21T08:34:43;6.60;;;1.30;;
42332;SDS011;27984;51.476;5.702;2023-08-21T08:37:11;4.65;;;1.55;;
42332;SDS011;27984;51.476;5.702;2023-08-21T08:39:37;6.78;;;1.38;;
42332;SDS011;27984;51.476;5.702;2023-08-21T08:42:03;5.50;;;1.15;;
42332;SDS011;27984;51.476;5.702;2023-08-21T08:44:31;5.05;;;1.35;;
42332;SDS011;27984;51.476;5.702;2023-08-21T08:46:59;3.75;;;1.02;;
42332;SDS011;27984;51.476;5.702;2023-08-21T08:49:26;4.28;;;1.15;;
42332;SDS011;27984;51.476;5.702;2023-08-21T08:51:53;4.80;;;1.35;;
42332;SDS011;27984;51.476;5.702;2023-08-21T08:54:20;5.93;;;1.55;;
42332;SDS011;27984;51.476;5.702;2023-08-21T08:56:46;5.68;;;1.10;;
42332;SDS011;27984;51.476;5.702;2023-08-21T08:59:12;6.70;;;1.20;;
42332;SDS011;27984;51.476;5.702;2023-08-21T09:01:39;3.75;;;1.30;;
42332;SDS011;27984;51.476;5.702;2023-08-21T09:04:05;4.60;;;1.20;;
42332;SDS011;27984;51.476;5.702;2023-08-21T09:06:32;6.03;;;1.10;;
42332;SDS011;27984;51.476;5.702;2023-08-21T09:08:58;5.72;;;1.42;;
42332;SDS011;27984;51.476;5.702;2023-08-21T09:11:24;6.55;;;1.65;;
42332;SDS011;27984;51.476;5.702;2023-08-21T09:13:51;6.75;;;1.15;;
42332;SDS011;27984;51.476;5.702;2023-08-21T09:16:21;4.03;;;1.10;;
42332;SDS011;27984;51.476;5.702;2023-08-21T09:18:47;4.20;;;1.20;;
42332;SDS011;27984;51.476;5.702;2023-08-21T09:21:17;4.93;;;1.23;;
42332;SDS011;27984;51.476;5.702;2023-08-21T09:23:44;6.45;;;1.27;;
42332;SDS011;27984;51.476;5.702;2023-08-21T09:26:22;5.72;;;1.40;;
42332;SDS011;27984;51.476;5.702;2023-08-21T09:28:49;8.00;;;1.38;;
42332;SDS011;27984;51.476;5.702;2023-08-21T09:31:15;5.53;;;1.30;;
42332;SDS011;27984;51.476;5.702;2023-08-21T09:33:41;3.75;;;0.93;;
42332;SDS011;27984;51.476;5.702;2023-08-21T09:36:10;5.28;;;1.30;;
42332;SDS011;27984;51.476;5.702;2023-08-21T09:38:38;6.22;;;1.20;;
42332;SDS011;27984;51.476;5.702;2023-08-21T09:41:05;4.15;;;0.90;;
42332;SDS011;27984;51.476;5.702;2023-08-21T09:43:32;6.88;;;1.15;;
42332;SDS011;27984;51.476;5.702;2023-08-21T09:46:06;5.22;;;1.40;;
42332;SDS011;27984;51.476;5.702;2023-08-21T09:48:32;4.38;;;1.33;;
42332;SDS011;27984;51.476;5.702;2023-08-21T09:50:58;6.10;;;1.40;;
42332;SDS011;27984;51.476;5.702;2023-08-21T09:53:28;6.03;;;1.35;;
42332;SDS011;27984;51.476;5.702;2023-08-21T09:55:55;5.30;;;1.45;;
42332;SDS011;27984;51.476;5.702;2023-08-21T09:58:21;5.40;;;1.08;;
42332;SDS011;27984;51.476;5.702;2023-08-21T10:00:48;3.47;;;1.10;;
42332;SDS011;27984;51.476;5.702;2023-08-21T10:03:15;5.25;;;1.40;;
42332;SDS011;27984;51.476;5.702;2023-08-21T10:05:43;8.43;;;1.30;;
42332;SDS011;27984;51.476;5.702;2023-08-21T10:08:09;4.97;;;1.10;;
42332;SDS011;27984;51.476;5.702;2023-08-21T10:10:36;4.72;;;1.15;;
42332;SDS011;27984;51.476;5.702;2023-08-21T10:13:03;4.65;;;1.17;;
42332;SDS011;27984;51.476;5.702;2023-08-21T10:15:29;2.95;;;1.00;;
42332;SDS011;27984;51.476;5.702;2023-08-21T10:17:56;5.07;;;1.10;;
42332;SDS011;27984;51.476;5.702;2023-08-21T10:20:22;4.28;;;1.20;;
42332;SDS011;27984;51.476;5.702;2023-08-21T10:22:49;4.97;;;1.17;;
42332;SDS011;27984;51.476;5.702;2023-08-21T10:25:16;4.45;;;1.27;;
42332;SDS011;27984;51.476;5.702;2023-08-21T10:27:45;4.85;;;1.20;;
42332;SDS011;27984;51.476;5.702;2023-08-21T10:30:15;6.95;;;1.30;;
42332;SDS011;27984;51.476;5.702;2023-08-21T10:32:44;5.78;;;1.10;;
42332;SDS011;27984;51.476;5.702;2023-08-21T10:35:13;5.47;;;1.40;;
42332;SDS011;27984;51.476;5.702;2023-08-21T10:42:51;6.57;;;1.40;;
42332;SDS011;27984;51.476;5.702;2023-08-21T10:45:17;5.50;;;1.23;;
42332;SDS011;27984;51.476;5.702;2023-08-21T10:47:43;6.75;;;1.55;;
42332;SDS011;27984;51.476;5.702;2023-08-21T10:50:11;4.70;;;1.05;;
42332;SDS011;27984;51.476;5.702;2023-08-21T10:52:39;4.13;;;1.00;;
42332;SDS011;27984;51.476;5.702;2023-08-21T10:55:07;2.85;;;0.90;;
42332;SDS011;27984;51.476;5.702;2023-08-21T10:57:36;4.95;;;1.15;;
42332;SDS011;27984;51.476;5.702;2023-08-21T11:00:06;5.78;;;1.10;;
42332;SDS011;27984;51.476;5.702;2023-08-21T11:02:39;5.57;;;0.90;;
42332;SDS011;27984;51.476;5.702;2023-08-21T11:05:05;4.88;;;1.15;;
42332;SDS011;27984;51.476;5.702;2023-08-21T11:07:36;4.47;;;1.25;;
42332;SDS011;27984;51.476;5.702;2023-08-21T11:10:03;6.90;;;1.00;;
42332;SDS011;27984;51.476;5.702;2023-08-21T11:12:30;6.20;;;1.15;;
42332;SDS011;27984;51.476;5.702;2023-08-21T11:14:56;6.07;;;1.15;;
42332;SDS011;27984;51.476;5.702;2023-08-21T11:17:22;4.18;;;1.25;;
42332;SDS011;27984;51.476;5.702;2023-08-21T11:19:50;4.47;;;1.30;;
42332;SDS011;27984;51.476;5.702;2023-08-21T11:22:25;5.78;;;1.20;;
42332;SDS011;27984;51.476;5.702;2023-08-21T11:24:54;6.38;;;1.20;;
42332;SDS011;27984;51.476;5.702;2023-08-21T11:27:20;3.85;;;0.88;;
42332;SDS011;27984;51.476;5.702;2023-08-21T11:29:48;4.05;;;1.38;;
42332;SDS011;27984;51.476;5.702;2023-08-21T11:32:15;7.10;;;1.20;;
42332;SDS011;27984;51.476;5.702;2023-08-21T11:34:42;3.35;;;1.08;;
42332;SDS011;27984;51.476;5.702;2023-08-21T11:37:09;3.55;;;1.00;;
42332;SDS011;27984;51.476;5.702;2023-08-21T11:39:55;5.60;;;1.38;;
42332;SDS011;27984;51.476;5.702;2023-08-21T11:42:29;5.40;;;1.17;;
42332;SDS011;27984;51.476;5.702;2023-08-21T11:44:55;5.00;;;1.38;;
42332;SDS011;27984;51.476;5.702;2023-08-21T11:47:21;4.38;;;1.30;;
42332;SDS011;27984;51.476;5.702;2023-08-21T11:49:48;3.97;;;1.20;;
42332;SDS011;27984;51.476;5.702;2023-08-21T11:52:17;6.55;;;1.38;;
42332;SDS011;27984;51.476;5.702;2023-08-21T11:54:46;4.80;;;1.23;;
42332;SDS011;27984;51.476;5.702;2023-08-21T11:57:13;2.60;;;0.88;;
42332;SDS011;27984;51.476;5.702;2023-08-21T11:59:39;5.35;;;1.23;;
42332;SDS011;27984;51.476;5.702;2023-08-21T12:02:16;3.47;;;1.02;;
42332;SDS011;27984;51.476;5.702;2023-08-21T12:04:42;3.13;;;1.13;;
42332;SDS011;27984;51.476;5.702;2023-08-21T12:07:09;3.55;;;1.10;;
42332;SDS011;27984;51.476;5.702;2023-08-21T12:09:35;3.72;;;1.00;;
42332;SDS011;27984;51.476;5.702;2023-08-21T12:12:01;3.83;;;1.02;;
42332;SDS011;27984;51.476;5.702;2023-08-21T12:14:27;5.03;;;1.15;;
42332;SDS011;27984;51.476;5.702;2023-08-21T12:16:53;4.90;;;1.10;;
42332;SDS011;27984;51.476;5.702;2023-08-21T12:19:20;8.30;;;1.08;;
42332;SDS011;27984;51.476;5.702;2023-08-21T12:21:46;7.53;;;1.25;;
42332;SDS011;27984;51.476;5.702;2023-08-21T12:24:12;6.30;;;1.30;;
42332;SDS011;27984;51.476;5.702;2023-08-21T12:26:38;3.92;;;1.00;;
42332;SDS011;27984;51.476;5.702;2023-08-21T12:29:04;2.83;;;0.90;;
42332;SDS011;27984;51.476;5.702;2023-08-21T12:31:30;2.63;;;1.10;;
42332;SDS011;27984;51.476;5.702;2023-08-21T12:33:56;4.90;;;1.00;;
42332;SDS011;27984;51.476;5.702;2023-08-21T12:36:22;5.00;;;1.05;;
42332;SDS011;27984;51.476;5.702;2023-08-21T12:38:48;3.70;;;0.90;;
42332;SDS011;27984;51.476;5.702;2023-08-21T12:41:14;4.53;;;1.30;;
42332;SDS011;27984;51.476;5.702;2023-08-21T12:43:40;4.97;;;1.30;;
42332;SDS011;27984;51.476;5.702;2023-08-21T12:46:06;4.65;;;1.10;;
42332;SDS011;27984;51.476;5.702;2023-08-21T12:48:32;6.00;;;1.20;;
42332;SDS011;27984;51.476;5.702;2023-08-21T12:50:58;4.68;;;1.25;;
42332;SDS011;27984;51.476;5.702;2023-08-21T12:53:24;5.47;;;1.10;;
42332;SDS011;27984;51.476;5.702;2023-08-21T12:55:50;7.25;;;1.10;;
42332;SDS011;27984;51.476;5.702;2023-08-21T12:58:16;10.85;;;1.20;;
42332;SDS011;27984;51.476;5.702;2023-08-21T13:00:43;4.55;;;1.20;;
42332;SDS011;27984;51.476;5.702;2023-08-21T13:03:09;5.18;;;1.10;;
42332;SDS011;27984;51.476;5.702;2023-08-21T13:05:35;3.85;;;1.20;;
42332;SDS011;27984;51.476;5.702;2023-08-21T13:08:01;4.13;;;0.98;;
42332;SDS011;27984;51.476;5.702;2023-08-21T13:10:27;3.47;;;0.85;;
42332;SDS011;27984;51.476;5.702;2023-08-21T13:12:53;3.00;;;0.93;;
42332;SDS011;27984;51.476;5.702;2023-08-21T13:15:19;6.03;;;1.20;;
42332;SDS011;27984;51.476;5.702;2023-08-21T13:17:45;3.85;;;1.25;;
42332;SDS011;27984;51.476;5.702;2023-08-21T13:20:11;4.13;;;0.93;;
42332;SDS011;27984;51.476;5.702;2023-08-21T13:23:10;5.82;;;1.45;;
42332;SDS011;27984;51.476;5.702;2023-08-21T13:25:29;5.32;;;1.23;;
42332;SDS011;27984;51.476;5.702;2023-08-21T13:27:55;4.47;;;1.13;;
42332;SDS011;27984;51.476;5.702;2023-08-21T13:30:21;4.85;;;1.23;;
42332;SDS011;27984;51.476;5.702;2023-08-21T13:32:50;4.72;;;1.40;;
42332;SDS011;27984;51.476;5.702;2023-08-21T13:35:16;7.63;;;1.40;;
42332;SDS011;27984;51.476;5.702;2023-08-21T13:37:42;5.50;;;1.48;;
42332;SDS011;27984;51.476;5.702;2023-08-21T13:40:08;4.13;;;1.50;;
42332;SDS011;27984;51.476;5.702;2023-08-21T13:42:38;7.88;;;1.70;;
42332;SDS011;27984;51.476;5.702;2023-08-21T13:45:11;5.43;;;1.30;;
42332;SDS011;27984;51.476;5.702;2023-08-21T13:47:41;6.53;;;1.25;;
42332;SDS011;27984;51.476;5.702;2023-08-21T13:50:08;5.15;;;1.25;;
42332;SDS011;27984;51.476;5.702;2023-08-21T13:52:34;5.60;;;1.40;;
42332;SDS011;27984;51.476;5.702;2023-08-21T13:55:00;5.78;;;1.30;;
42332;SDS011;27984;51.476;5.702;2023-08-21T13:57:27;4.35;;;1.60;;
42332;SDS011;27984;51.476;5.702;2023-08-21T13:59:53;4.55;;;1.23;;
42332;SDS011;27984;51.476;5.702;2023-08-21T14:02:19;5.35;;;1.17;;
42332;SDS011;27984;51.476;5.702;2023-08-21T14:04:45;5.13;;;1.50;;
42332;SDS011;27984;51.476;5.702;2023-08-21T14:07:12;3.85;;;1.35;;
42332;SDS011;27984;51.476;5.702;2023-08-21T14:09:38;3.90;;;1.10;;
42332;SDS011;27984;51.476;5.702;2023-08-21T14:12:04;3.20;;;1.17;;
42332;SDS011;27984;51.476;5.702;2023-08-21T14:14:32;4.40;;;1.15;;
42332;SDS011;27984;51.476;5.702;2023-08-21T14:16:57;10.68;;;1.30;;
42332;SDS011;27984;51.476;5.702;2023-08-21T14:19:24;5.07;;;1.23;;
42332;SDS011;27984;51.476;5.702;2023-08-21T14:21:49;5.03;;;1.10;;
42332;SDS011;27984;51.476;5.702;2023-08-21T14:24:15;3.72;;;1.00;;
42332;SDS011;27984;51.476;5.702;2023-08-21T14:26:41;4.10;;;1.30;;
42332;SDS011;27984;51.476;5.702;2023-08-21T14:31:33;5.35;;;1.40;;
42332;SDS011;27984;51.476;5.702;2023-08-21T14:33:59;3.53;;;1.08;;
42332;SDS011;27984;51.476;5.702;2023-08-21T14:36:26;3.97;;;1.20;;
42332;SDS011;27984;51.476;5.702;2023-08-21T14:38:51;4.50;;;1.30;;
42332;SDS011;27984;51.476;5.702;2023-08-21T14:41:18;4.55;;;1.20;;
42332;SDS011;27984;51.476;5.702;2023-08-21T14:43:44;3.22;;;1.13;;
42332;SDS011;27984;51.476;5.702;2023-08-21T14:46:10;3.72;;;1.10;;
42332;SDS011;27984;51.476;5.702;2023-08-21T14:48:36;6.07;;;1.13;;
42332;SDS011;27984;51.476;5.702;2023-08-21T14:51:03;6.90;;;3.70;;
42332;SDS011;27984;51.476;5.702;2023-08-21T14:53:29;3.97;;;1.15;;